sensor_id;sensor_type;location;lat;lon;timestamp;P1;durP1;ratioP1;P2;durP2;ratioP2
19854;SDS011;10088;47.946;2.532;2023-04-09T00:01:37;12.57;;;9.00;;
19854;SDS011;10088;47.946;2.532;2023-04-09T00:04:03;12.60;;;8.37;;
19854;SDS011;10088;47.946;2.532;2023-04-09T00:06:28;11.70;;;8.33;;
19854;SDS011;10088;47.946;2.532;2023-04-09T00:08:53;10.83;;;9.10;;
19854;SDS011;10088;47.946;2.532;2023-04-09T00:11:19;13.40;;;9.10;;
19854;SDS011;10088;47.946;2.532;2023-04-09T00:13:44;10.40;;;8.03;;
19854;SDS011;10088;47.946;2.532;2023-04-09T00:16:10;10.73;;;8.33;;
19854;SDS011;10088;47.946;2.532;2023-04-09T00:18:35;8.40;;;6.70;;
19854;SDS011;10088;47.946;2.532;2023-04-09T00:21:00;10.50;;;7.60;;
19854;SDS011;10088;47.946;2.532;2023-04-09T00:23:25;10.27;;;8.63;;
19854;SDS011;10088;47.946;2.532;2023-04-09T00:25:51;15.20;;;9.70;;
19854;SDS011;10088;47.946;2.532;2023-04-09T00:28:16;16.80;;;10.97;;
19854;SDS011;10088;47.946;2.532;2023-04-09T00:30:41;18.60;;;11.47;;
19854;SDS011;10088;47.946;2.532;2023-04-09T00:33:07;16.00;;;11.50;;
19854;SDS011;10088;47.946;2.532;2023-04-09T00:35:32;19.97;;;11.37;;
19854;SDS011;10088;47.946;2.532;2023-04-09T00:37:57;19.40;;;11.40;;
19854;SDS011;10088;47.946;2.532;2023-04-09T00:40:22;17.80;;;11.90;;
19854;SDS011;10088;47.946;2.532;2023-04-09T00:42:48;18.03;;;10.87;;
19854;SDS011;10088;47.946;2.532;2023-04-09T00:45:14;15.90;;;9.87;;
19854;SDS011;10088;47.946;2.532;2023-04-09T00:47:39;18.40;;;11.10;;
19854;SDS011;10088;47.946;2.532;2023-04-09T00:50:07;22.30;;;10.33;;
19854;SDS011;10088;47.946;2.532;2023-04-09T00:52:32;12.27;;;8.33;;
19854;SDS011;10088;47.946;2.532;2023-04-09T00:54:58;11.57;;;8.03;;
19854;SDS011;10088;47.946;2.532;2023-04-09T00:57:23;13.80;;;9.33;;
19854;SDS011;10088;47.946;2.532;2023-04-09T00:59:48;14.90;;;10.23;;
19854;SDS011;10088;47.946;2.532;2023-04-09T01:02:14;13.10;;;9.50;;
19854;SDS011;10088;47.946;2.532;2023-04-09T01:04:40;17.57;;;10.37;;
19854;SDS011;10088;47.946;2.532;2023-04-09T01:09:36;13.67;;;9.90;;
19854;SDS011;10088;47.946;2.532;2023-04-09T01:14:33;20.80;;;12.33;;
19854;SDS011;10088;47.946;2.532;2023-04-09T01:17:02;18.13;;;13.37;;
19854;SDS011;10088;47.946;2.532;2023-04-09T01:22:55;20.00;;;14.73;;
19854;SDS011;10088;47.946;2.532;2023-04-09T01:25:02;19.63;;;14.10;;
19854;SDS011;10088;47.946;2.532;2023-04-09T01:28:15;23.33;;;15.37;;
19854;SDS011;10088;47.946;2.532;2023-04-09T01:30:14;24.37;;;15.00;;
19854;SDS011;10088;47.946;2.532;2023-04-09T01:32:40;24.40;;;16.30;;
19854;SDS011;10088;47.946;2.532;2023-04-09T01:35:06;25.70;;;15.97;;
19854;SDS011;10088;47.946;2.532;2023-04-09T01:37:32;23.17;;;15.33;;
19854;SDS011;10088;47.946;2.532;2023-04-09T01:39:58;25.27;;;15.40;;
19854;SDS011;10088;47.946;2.532;2023-04-09T01:42:24;25.77;;;16.50;;
19854;SDS011;10088;47.946;2.532;2023-04-09T01:44:50;26.27;;;15.73;;
19854;SDS011;10088;47.946;2.532;2023-04-09T01:47:16;24.63;;;15.13;;
19854;SDS011;10088;47.946;2.532;2023-04-09T01:49:41;22.77;;;16.33;;
19854;SDS011;10088;47.946;2.532;2023-04-09T01:52:07;26.27;;;16.20;;
19854;SDS011;10088;47.946;2.532;2023-04-09T01:54:33;19.60;;;15.17;;
19854;SDS011;10088;47.946;2.532;2023-04-09T01:56:58;25.00;;;15.87;;
19854;SDS011;10088;47.946;2.532;2023-04-09T01:59:24;25.50;;;16.67;;
19854;SDS011;10088;47.946;2.532;2023-04-09T02:01:52;26.00;;;16.23;;
19854;SDS011;10088;47.946;2.532;2023-04-09T02:04:22;23.37;;;16.30;;
19854;SDS011;10088;47.946;2.532;2023-04-09T02:06:58;20.93;;;15.40;;
19854;SDS011;10088;47.946;2.532;2023-04-09T02:09:26;21.70;;;15.37;;
19854;SDS011;10088;47.946;2.532;2023-04-09T02:11:52;26.03;;;16.43;;
19854;SDS011;10088;47.946;2.532;2023-04-09T02:14:18;23.83;;;15.50;;
19854;SDS011;10088;47.946;2.532;2023-04-09T02:16:44;23.97;;;15.70;;
19854;SDS011;10088;47.946;2.532;2023-04-09T02:19:10;26.20;;;16.50;;
19854;SDS011;10088;47.946;2.532;2023-04-09T02:21:35;19.73;;;14.93;;
19854;SDS011;10088;47.946;2.532;2023-04-09T02:24:00;21.53;;;15.27;;
19854;SDS011;10088;47.946;2.532;2023-04-09T02:26:26;24.00;;;16.00;;
19854;SDS011;10088;47.946;2.532;2023-04-09T02:28:51;21.20;;;15.93;;
19854;SDS011;10088;47.946;2.532;2023-04-09T02:31:16;23.83;;;14.90;;
19854;SDS011;10088;47.946;2.532;2023-04-09T02:33:42;23.10;;;16.43;;
19854;SDS011;10088;47.946;2.532;2023-04-09T02:36:10;21.43;;;15.00;;
19854;SDS011;10088;47.946;2.532;2023-04-09T02:38:36;22.30;;;14.83;;
19854;SDS011;10088;47.946;2.532;2023-04-09T02:41:02;20.07;;;13.07;;
19854;SDS011;10088;47.946;2.532;2023-04-09T02:43:27;24.03;;;15.63;;
19854;SDS011;10088;47.946;2.532;2023-04-09T02:45:52;21.80;;;15.03;;
19854;SDS011;10088;47.946;2.532;2023-04-09T02:48:17;24.37;;;14.73;;
19854;SDS011;10088;47.946;2.532;2023-04-09T02:50:43;23.47;;;14.93;;
19854;SDS011;10088;47.946;2.532;2023-04-09T02:53:08;26.53;;;16.07;;
19854;SDS011;10088;47.946;2.532;2023-04-09T02:55:33;21.37;;;14.73;;
19854;SDS011;10088;47.946;2.532;2023-04-09T02:57:58;24.37;;;15.20;;
19854;SDS011;10088;47.946;2.532;2023-04-09T03:00:24;23.07;;;14.17;;
19854;SDS011;10088;47.946;2.532;2023-04-09T03:02:49;23.53;;;15.10;;
19854;SDS011;10088;47.946;2.532;2023-04-09T03:05:14;24.17;;;15.57;;
19854;SDS011;10088;47.946;2.532;2023-04-09T03:07:39;21.63;;;13.90;;
19854;SDS011;10088;47.946;2.532;2023-04-09T03:10:05;20.70;;;14.00;;
19854;SDS011;10088;47.946;2.532;2023-04-09T03:12:30;25.07;;;15.53;;
19854;SDS011;10088;47.946;2.532;2023-04-09T03:14:55;22.57;;;15.30;;
19854;SDS011;10088;47.946;2.532;2023-04-09T03:17:21;27.57;;;15.33;;
19854;SDS011;10088;47.946;2.532;2023-04-09T03:19:49;29.80;;;15.73;;
19854;SDS011;10088;47.946;2.532;2023-04-09T03:22:15;23.53;;;15.03;;
19854;SDS011;10088;47.946;2.532;2023-04-09T03:24:40;24.53;;;18.23;;
19854;SDS011;10088;47.946;2.532;2023-04-09T03:27:05;22.63;;;14.27;;
19854;SDS011;10088;47.946;2.532;2023-04-09T03:29:30;18.33;;;12.30;;
19854;SDS011;10088;47.946;2.532;2023-04-09T03:31:56;22.57;;;15.13;;
19854;SDS011;10088;47.946;2.532;2023-04-09T03:34:21;22.63;;;14.47;;
19854;SDS011;10088;47.946;2.532;2023-04-09T03:36:46;25.27;;;15.67;;
19854;SDS011;10088;47.946;2.532;2023-04-09T03:39:11;22.83;;;14.17;;
19854;SDS011;10088;47.946;2.532;2023-04-09T03:41:37;20.17;;;13.67;;
19854;SDS011;10088;47.946;2.532;2023-04-09T03:44:02;20.30;;;15.40;;
19854;SDS011;10088;47.946;2.532;2023-04-09T03:46:27;26.30;;;14.80;;
19854;SDS011;10088;47.946;2.532;2023-04-09T03:48:52;23.70;;;15.30;;
19854;SDS011;10088;47.946;2.532;2023-04-09T03:51:18;23.73;;;14.53;;
19854;SDS011;10088;47.946;2.532;2023-04-09T03:53:43;24.17;;;16.10;;
19854;SDS011;10088;47.946;2.532;2023-04-09T03:56:09;25.47;;;14.97;;
19854;SDS011;10088;47.946;2.532;2023-04-09T03:58:34;21.20;;;14.03;;
19854;SDS011;10088;47.946;2.532;2023-04-09T04:01:00;19.47;;;13.07;;
19854;SDS011;10088;47.946;2.532;2023-04-09T04:03:25;19.57;;;13.77;;
19854;SDS011;10088;47.946;2.532;2023-04-09T04:05:50;20.23;;;13.13;;
19854;SDS011;10088;47.946;2.532;2023-04-09T04:08:15;20.73;;;14.00;;
19854;SDS011;10088;47.946;2.532;2023-04-09T04:10:41;16.37;;;12.83;;
19854;SDS011;10088;47.946;2.532;2023-04-09T04:13:06;19.93;;;13.67;;
19854;SDS011;10088;47.946;2.532;2023-04-09T04:15:40;17.97;;;12.53;;
19854;SDS011;10088;47.946;2.532;2023-04-09T04:18:06;23.40;;;13.27;;
19854;SDS011;10088;47.946;2.532;2023-04-09T04:20:32;19.97;;;12.30;;
19854;SDS011;10088;47.946;2.532;2023-04-09T04:22:57;16.97;;;11.33;;
19854;SDS011;10088;47.946;2.532;2023-04-09T04:25:22;20.70;;;12.33;;
19854;SDS011;10088;47.946;2.532;2023-04-09T04:27:48;22.53;;;13.17;;
19854;SDS011;10088;47.946;2.532;2023-04-09T04:30:13;20.40;;;13.70;;
19854;SDS011;10088;47.946;2.532;2023-04-09T04:32:38;19.23;;;12.97;;
19854;SDS011;10088;47.946;2.532;2023-04-09T04:35:03;19.47;;;11.83;;
19854;SDS011;10088;47.946;2.532;2023-04-09T04:37:29;19.07;;;12.80;;
19854;SDS011;10088;47.946;2.532;2023-04-09T04:39:54;100.20;;;14.40;;
19854;SDS011;10088;47.946;2.532;2023-04-09T04:42:19;19.93;;;12.23;;
19854;SDS011;10088;47.946;2.532;2023-04-09T04:44:45;23.33;;;14.53;;
19854;SDS011;10088;47.946;2.532;2023-04-09T04:47:10;21.67;;;14.10;;
19854;SDS011;10088;47.946;2.532;2023-04-09T04:49:35;18.93;;;11.40;;
19854;SDS011;10088;47.946;2.532;2023-04-09T04:52:01;17.63;;;11.30;;
19854;SDS011;10088;47.946;2.532;2023-04-09T04:54:26;21.83;;;14.17;;
19854;SDS011;10088;47.946;2.532;2023-04-09T04:56:51;19.90;;;12.63;;
19854;SDS011;10088;47.946;2.532;2023-04-09T04:59:17;20.87;;;12.67;;
19854;SDS011;10088;47.946;2.532;2023-04-09T05:01:42;22.47;;;14.30;;
19854;SDS011;10088;47.946;2.532;2023-04-09T05:04:07;29.13;;;14.93;;
19854;SDS011;10088;47.946;2.532;2023-04-09T05:06:32;22.07;;;12.53;;
19854;SDS011;10088;47.946;2.532;2023-04-09T05:08:58;25.13;;;14.97;;
19854;SDS011;10088;47.946;2.532;2023-04-09T05:11:23;29.00;;;15.10;;
19854;SDS011;10088;47.946;2.532;2023-04-09T05:13:49;23.40;;;15.00;;
19854;SDS011;10088;47.946;2.532;2023-04-09T05:16:18;27.03;;;12.83;;
19854;SDS011;10088;47.946;2.532;2023-04-09T05:18:43;25.80;;;14.17;;
19854;SDS011;10088;47.946;2.532;2023-04-09T05:21:09;21.50;;;13.37;;
19854;SDS011;10088;47.946;2.532;2023-04-09T05:23:34;18.20;;;13.23;;
19854;SDS011;10088;47.946;2.532;2023-04-09T05:25:59;19.17;;;11.97;;
19854;SDS011;10088;47.946;2.532;2023-04-09T05:28:25;19.93;;;13.73;;
19854;SDS011;10088;47.946;2.532;2023-04-09T05:30:50;19.83;;;12.77;;
19854;SDS011;10088;47.946;2.532;2023-04-09T05:33:15;22.90;;;12.33;;
19854;SDS011;10088;47.946;2.532;2023-04-09T05:35:40;21.43;;;12.87;;
19854;SDS011;10088;47.946;2.532;2023-04-09T05:38:06;19.37;;;13.03;;
19854;SDS011;10088;47.946;2.532;2023-04-09T05:40:31;20.23;;;13.47;;
19854;SDS011;10088;47.946;2.532;2023-04-09T05:42:56;25.57;;;13.43;;
19854;SDS011;10088;47.946;2.532;2023-04-09T05:45:22;23.20;;;13.67;;
19854;SDS011;10088;47.946;2.532;2023-04-09T05:47:47;24.47;;;14.37;;
19854;SDS011;10088;47.946;2.532;2023-04-09T05:50:12;25.00;;;14.83;;
19854;SDS011;10088;47.946;2.532;2023-04-09T05:52:37;22.13;;;14.10;;
19854;SDS011;10088;47.946;2.532;2023-04-09T05:55:03;24.50;;;15.17;;
19854;SDS011;10088;47.946;2.532;2023-04-09T05:57:29;20.50;;;14.07;;
19854;SDS011;10088;47.946;2.532;2023-04-09T05:59:55;21.80;;;14.47;;
19854;SDS011;10088;47.946;2.532;2023-04-09T06:02:21;25.13;;;14.43;;
19854;SDS011;10088;47.946;2.532;2023-04-09T06:04:46;24.80;;;14.50;;
19854;SDS011;10088;47.946;2.532;2023-04-09T06:07:11;23.03;;;14.30;;
19854;SDS011;10088;47.946;2.532;2023-04-09T06:09:37;23.57;;;14.40;;
19854;SDS011;10088;47.946;2.532;2023-04-09T06:12:02;22.27;;;14.83;;
19854;SDS011;10088;47.946;2.532;2023-04-09T06:14:28;23.37;;;15.77;;
19854;SDS011;10088;47.946;2.532;2023-04-09T06:16:53;22.67;;;14.00;;
19854;SDS011;10088;47.946;2.532;2023-04-09T06:19:18;37.33;;;23.03;;
19854;SDS011;10088;47.946;2.532;2023-04-09T06:21:44;25.40;;;17.47;;
19854;SDS011;10088;47.946;2.532;2023-04-09T06:24:09;28.00;;;17.10;;
19854;SDS011;10088;47.946;2.532;2023-04-09T06:26:34;30.13;;;20.07;;
19854;SDS011;10088;47.946;2.532;2023-04-09T06:29:00;30.00;;;18.77;;
19854;SDS011;10088;47.946;2.532;2023-04-09T06:31:26;26.87;;;18.57;;
19854;SDS011;10088;47.946;2.532;2023-04-09T06:33:51;24.57;;;16.77;;
19854;SDS011;10088;47.946;2.532;2023-04-09T06:36:16;24.97;;;17.27;;
19854;SDS011;10088;47.946;2.532;2023-04-09T06:38:42;26.73;;;17.47;;
19854;SDS011;10088;47.946;2.532;2023-04-09T06:41:07;31.50;;;22.10;;
19854;SDS011;10088;47.946;2.532;2023-04-09T06:43:33;28.80;;;21.53;;
19854;SDS011;10088;47.946;2.532;2023-04-09T06:45:58;28.43;;;19.83;;
19854;SDS011;10088;47.946;2.532;2023-04-09T06:48:23;49.17;;;36.27;;
19854;SDS011;10088;47.946;2.532;2023-04-09T06:50:49;40.87;;;31.07;;
19854;SDS011;10088;47.946;2.532;2023-04-09T06:53:14;45.93;;;30.63;;
19854;SDS011;10088;47.946;2.532;2023-04-09T06:55:40;108.03;;;70.17;;
19854;SDS011;10088;47.946;2.532;2023-04-09T06:58:06;60.67;;;42.03;;
19854;SDS011;10088;47.946;2.532;2023-04-09T07:00:31;29.47;;;22.57;;
19854;SDS011;10088;47.946;2.532;2023-04-09T07:02:56;59.77;;;45.40;;
19854;SDS011;10088;47.946;2.532;2023-04-09T07:05:22;35.13;;;26.23;;
19854;SDS011;10088;47.946;2.532;2023-04-09T07:07:47;27.57;;;21.67;;
19854;SDS011;10088;47.946;2.532;2023-04-09T07:10:13;24.67;;;20.07;;
19854;SDS011;10088;47.946;2.532;2023-04-09T07:12:39;22.47;;;17.57;;
19854;SDS011;10088;47.946;2.532;2023-04-09T07:15:04;30.00;;;22.87;;
19854;SDS011;10088;47.946;2.532;2023-04-09T07:17:30;19.73;;;16.23;;
19854;SDS011;10088;47.946;2.532;2023-04-09T07:19:56;23.23;;;17.03;;
19854;SDS011;10088;47.946;2.532;2023-04-09T07:22:22;27.37;;;23.17;;
19854;SDS011;10088;47.946;2.532;2023-04-09T07:24:47;28.03;;;21.33;;
19854;SDS011;10088;47.946;2.532;2023-04-09T07:27:26;25.07;;;20.60;;
19854;SDS011;10088;47.946;2.532;2023-04-09T07:29:53;15.17;;;12.83;;
19854;SDS011;10088;47.946;2.532;2023-04-09T07:32:18;16.53;;;13.33;;
19854;SDS011;10088;47.946;2.532;2023-04-09T07:34:43;22.63;;;16.73;;
19854;SDS011;10088;47.946;2.532;2023-04-09T07:37:09;18.40;;;13.93;;
19854;SDS011;10088;47.946;2.532;2023-04-09T07:39:35;16.97;;;13.27;;
19854;SDS011;10088;47.946;2.532;2023-04-09T07:42:03;15.10;;;12.77;;
19854;SDS011;10088;47.946;2.532;2023-04-09T07:44:28;15.00;;;13.10;;
19854;SDS011;10088;47.946;2.532;2023-04-09T07:46:54;15.60;;;14.00;;
19854;SDS011;10088;47.946;2.532;2023-04-09T07:49:19;16.00;;;12.20;;
19854;SDS011;10088;47.946;2.532;2023-04-09T07:51:46;14.00;;;12.53;;
19854;SDS011;10088;47.946;2.532;2023-04-09T07:54:11;18.20;;;12.73;;
19854;SDS011;10088;47.946;2.532;2023-04-09T07:56:36;15.63;;;12.80;;
19854;SDS011;10088;47.946;2.532;2023-04-09T07:59:01;18.03;;;13.07;;
19854;SDS011;10088;47.946;2.532;2023-04-09T08:01:27;16.73;;;13.57;;
19854;SDS011;10088;47.946;2.532;2023-04-09T08:03:52;14.47;;;12.97;;
19854;SDS011;10088;47.946;2.532;2023-04-09T08:06:17;12.77;;;11.40;;
19854;SDS011;10088;47.946;2.532;2023-04-09T08:08:43;16.40;;;12.13;;
19854;SDS011;10088;47.946;2.532;2023-04-09T08:11:08;14.17;;;12.10;;
19854;SDS011;10088;47.946;2.532;2023-04-09T08:13:33;14.83;;;11.83;;
19854;SDS011;10088;47.946;2.532;2023-04-09T08:16:02;15.53;;;12.70;;
19854;SDS011;10088;47.946;2.532;2023-04-09T08:18:27;13.77;;;10.73;;
19854;SDS011;10088;47.946;2.532;2023-04-09T08:20:53;11.97;;;9.70;;
19854;SDS011;10088;47.946;2.532;2023-04-09T08:23:18;11.97;;;10.50;;
19854;SDS011;10088;47.946;2.532;2023-04-09T08:25:43;12.97;;;10.07;;
19854;SDS011;10088;47.946;2.532;2023-04-09T08:28:08;11.03;;;9.80;;
19854;SDS011;10088;47.946;2.532;2023-04-09T08:30:34;13.00;;;10.37;;
19854;SDS011;10088;47.946;2.532;2023-04-09T08:33:00;12.70;;;9.90;;
19854;SDS011;10088;47.946;2.532;2023-04-09T08:35:25;12.17;;;9.67;;
19854;SDS011;10088;47.946;2.532;2023-04-09T08:37:52;11.87;;;9.97;;
19854;SDS011;10088;47.946;2.532;2023-04-09T08:40:18;12.27;;;9.43;;
19854;SDS011;10088;47.946;2.532;2023-04-09T08:42:43;11.53;;;9.20;;
19854;SDS011;10088;47.946;2.532;2023-04-09T08:45:17;12.50;;;9.30;;
19854;SDS011;10088;47.946;2.532;2023-04-09T08:47:47;10.77;;;9.27;;
19854;SDS011;10088;47.946;2.532;2023-04-09T08:50:19;13.83;;;9.93;;
19854;SDS011;10088;47.946;2.532;2023-04-09T08:52:47;9.73;;;8.73;;
19854;SDS011;10088;47.946;2.532;2023-04-09T08:55:22;11.20;;;9.47;;
19854;SDS011;10088;47.946;2.532;2023-04-09T08:57:51;10.97;;;9.07;;
19854;SDS011;10088;47.946;2.532;2023-04-09T09:00:22;9.93;;;8.90;;
19854;SDS011;10088;47.946;2.532;2023-04-09T09:03:03;10.87;;;8.70;;
19854;SDS011;10088;47.946;2.532;2023-04-09T09:05:36;9.37;;;8.47;;
19854;SDS011;10088;47.946;2.532;2023-04-09T09:08:02;9.93;;;8.50;;
19854;SDS011;10088;47.946;2.532;2023-04-09T09:10:35;10.57;;;8.90;;
19854;SDS011;10088;47.946;2.532;2023-04-09T09:13:08;9.57;;;8.23;;
19854;SDS011;10088;47.946;2.532;2023-04-09T09:15:45;9.20;;;8.20;;
19854;SDS011;10088;47.946;2.532;2023-04-09T09:18:12;9.80;;;8.80;;
19854;SDS011;10088;47.946;2.532;2023-04-09T09:20:38;10.20;;;8.53;;
19854;SDS011;10088;47.946;2.532;2023-04-09T09:23:09;8.90;;;7.60;;
19854;SDS011;10088;47.946;2.532;2023-04-09T09:25:39;8.87;;;8.07;;
19854;SDS011;10088;47.946;2.532;2023-04-09T09:28:07;9.33;;;8.43;;
19854;SDS011;10088;47.946;2.532;2023-04-09T09:30:39;9.93;;;8.27;;
19854;SDS011;10088;47.946;2.532;2023-04-09T09:33:06;8.50;;;7.67;;
19854;SDS011;10088;47.946;2.532;2023-04-09T09:35:48;8.17;;;7.37;;
19854;SDS011;10088;47.946;2.532;2023-04-09T09:38:14;8.60;;;7.70;;
19854;SDS011;10088;47.946;2.532;2023-04-09T09:40:48;8.83;;;7.30;;
19854;SDS011;10088;47.946;2.532;2023-04-09T09:43:14;7.57;;;6.77;;
19854;SDS011;10088;47.946;2.532;2023-04-09T09:45:40;7.60;;;6.87;;
19854;SDS011;10088;47.946;2.532;2023-04-09T09:48:09;7.00;;;6.30;;
19854;SDS011;10088;47.946;2.532;2023-04-09T09:50:35;9.10;;;6.63;;
19854;SDS011;10088;47.946;2.532;2023-04-09T09:53:05;7.90;;;6.50;;
19854;SDS011;10088;47.946;2.532;2023-04-09T09:55:32;8.20;;;7.30;;
19854;SDS011;10088;47.946;2.532;2023-04-09T09:58:02;7.33;;;6.63;;
19854;SDS011;10088;47.946;2.532;2023-04-09T10:02:58;8.00;;;7.20;;
19854;SDS011;10088;47.946;2.532;2023-04-09T10:05:24;8.43;;;7.63;;
19854;SDS011;10088;47.946;2.532;2023-04-09T10:07:56;8.47;;;7.63;;
19854;SDS011;10088;47.946;2.532;2023-04-09T10:10:22;11.27;;;7.70;;
19854;SDS011;10088;47.946;2.532;2023-04-09T10:12:49;8.60;;;7.73;;
19854;SDS011;10088;47.946;2.532;2023-04-09T10:15:15;9.73;;;8.53;;
19854;SDS011;10088;47.946;2.532;2023-04-09T10:17:41;8.87;;;7.93;;
19854;SDS011;10088;47.946;2.532;2023-04-09T10:20:12;9.67;;;7.83;;
19854;SDS011;10088;47.946;2.532;2023-04-09T10:22:39;9.57;;;8.10;;
19854;SDS011;10088;47.946;2.532;2023-04-09T10:25:05;8.30;;;7.57;;
19854;SDS011;10088;47.946;2.532;2023-04-09T10:27:30;11.00;;;7.53;;
19854;SDS011;10088;47.946;2.532;2023-04-09T10:29:56;9.77;;;7.90;;
19854;SDS011;10088;47.946;2.532;2023-04-09T10:32:25;8.57;;;7.77;;
19854;SDS011;10088;47.946;2.532;2023-04-09T10:34:56;9.47;;;7.20;;
19854;SDS011;10088;47.946;2.532;2023-04-09T10:37:22;9.03;;;7.20;;
19854;SDS011;10088;47.946;2.532;2023-04-09T10:39:49;8.10;;;7.30;;
19854;SDS011;10088;47.946;2.532;2023-04-09T10:42:39;7.83;;;6.57;;
19854;SDS011;10088;47.946;2.532;2023-04-09T10:45:11;8.53;;;6.77;;
19854;SDS011;10088;47.946;2.532;2023-04-09T10:47:38;7.40;;;6.40;;
19854;SDS011;10088;47.946;2.532;2023-04-09T10:50:14;7.57;;;6.50;;
19854;SDS011;10088;47.946;2.532;2023-04-09T10:52:41;7.93;;;6.07;;
19854;SDS011;10088;47.946;2.532;2023-04-09T10:55:08;7.77;;;6.80;;
19854;SDS011;10088;47.946;2.532;2023-04-09T10:57:35;7.87;;;6.20;;
19854;SDS011;10088;47.946;2.532;2023-04-09T11:00:00;6.87;;;6.13;;
19854;SDS011;10088;47.946;2.532;2023-04-09T11:05:00;7.50;;;6.80;;
19854;SDS011;10088;47.946;2.532;2023-04-09T11:07:26;8.20;;;6.83;;
19854;SDS011;10088;47.946;2.532;2023-04-09T11:09:54;7.07;;;5.73;;
19854;SDS011;10088;47.946;2.532;2023-04-09T11:12:19;7.83;;;6.27;;
19854;SDS011;10088;47.946;2.532;2023-04-09T11:14:46;6.00;;;5.40;;
19854;SDS011;10088;47.946;2.532;2023-04-09T11:17:12;6.83;;;5.20;;
19854;SDS011;10088;47.946;2.532;2023-04-09T11:19:38;5.80;;;5.20;;
19854;SDS011;10088;47.946;2.532;2023-04-09T11:22:04;5.33;;;4.67;;
19854;SDS011;10088;47.946;2.532;2023-04-09T11:24:40;6.17;;;5.40;;
19854;SDS011;10088;47.946;2.532;2023-04-09T11:27:07;5.53;;;4.90;;
19854;SDS011;10088;47.946;2.532;2023-04-09T11:29:35;5.07;;;4.57;;
19854;SDS011;10088;47.946;2.532;2023-04-09T11:32:01;4.40;;;3.70;;
19854;SDS011;10088;47.946;2.532;2023-04-09T11:36:57;5.17;;;4.20;;
19854;SDS011;10088;47.946;2.532;2023-04-09T11:39:26;3.83;;;3.50;;
19854;SDS011;10088;47.946;2.532;2023-04-09T11:41:52;6.47;;;3.50;;
19854;SDS011;10088;47.946;2.532;2023-04-09T11:44:19;4.23;;;3.03;;
19854;SDS011;10088;47.946;2.532;2023-04-09T11:46:44;3.27;;;2.60;;
19854;SDS011;10088;47.946;2.532;2023-04-09T11:49:10;2.60;;;2.40;;
19854;SDS011;10088;47.946;2.532;2023-04-09T11:51:35;4.20;;;3.07;;
19854;SDS011;10088;47.946;2.532;2023-04-09T11:54:01;3.67;;;2.80;;
19854;SDS011;10088;47.946;2.532;2023-04-09T11:56:29;4.60;;;3.77;;
19854;SDS011;10088;47.946;2.532;2023-04-09T11:58:55;3.77;;;3.07;;
19854;SDS011;10088;47.946;2.532;2023-04-09T12:01:20;3.93;;;3.50;;
19854;SDS011;10088;47.946;2.532;2023-04-09T12:03:51;4.13;;;3.40;;
19854;SDS011;10088;47.946;2.532;2023-04-09T12:06:16;3.33;;;3.00;;
19854;SDS011;10088;47.946;2.532;2023-04-09T12:08:44;4.27;;;3.40;;
19854;SDS011;10088;47.946;2.532;2023-04-09T12:11:10;3.47;;;3.17;;
19854;SDS011;10088;47.946;2.532;2023-04-09T12:13:35;3.73;;;3.33;;
19854;SDS011;10088;47.946;2.532;2023-04-09T12:16:01;4.33;;;3.37;;
19854;SDS011;10088;47.946;2.532;2023-04-09T12:18:29;4.03;;;3.27;;
19854;SDS011;10088;47.946;2.532;2023-04-09T12:20:55;4.10;;;2.77;;
19854;SDS011;10088;47.946;2.532;2023-04-09T12:23:20;2.67;;;2.47;;
19854;SDS011;10088;47.946;2.532;2023-04-09T12:25:45;3.47;;;2.90;;
19854;SDS011;10088;47.946;2.532;2023-04-09T12:28:12;3.90;;;3.10;;
19854;SDS011;10088;47.946;2.532;2023-04-09T12:30:39;3.30;;;3.00;;
19854;SDS011;10088;47.946;2.532;2023-04-09T12:33:05;3.00;;;2.70;;
19854;SDS011;10088;47.946;2.532;2023-04-09T12:35:30;3.13;;;2.13;;
19854;SDS011;10088;47.946;2.532;2023-04-09T12:37:55;2.33;;;2.03;;
19854;SDS011;10088;47.946;2.532;2023-04-09T12:40:21;2.87;;;2.30;;
19854;SDS011;10088;47.946;2.532;2023-04-09T12:42:46;3.23;;;2.60;;
19854;SDS011;10088;47.946;2.532;2023-04-09T12:45:12;4.87;;;2.90;;
19854;SDS011;10088;47.946;2.532;2023-04-09T12:47:38;3.23;;;2.90;;
19854;SDS011;10088;47.946;2.532;2023-04-09T12:50:07;3.93;;;2.67;;
19854;SDS011;10088;47.946;2.532;2023-04-09T12:52:32;2.80;;;2.20;;
19854;SDS011;10088;47.946;2.532;2023-04-09T12:54:58;2.37;;;2.17;;
19854;SDS011;10088;47.946;2.532;2023-04-09T12:57:24;2.70;;;2.20;;
19854;SDS011;10088;47.946;2.532;2023-04-09T12:59:49;3.87;;;2.50;;
19854;SDS011;10088;47.946;2.532;2023-04-09T13:02:14;4.03;;;2.60;;
19854;SDS011;10088;47.946;2.532;2023-04-09T13:04:40;2.80;;;2.23;;
19854;SDS011;10088;47.946;2.532;2023-04-09T13:07:05;3.73;;;3.00;;
19854;SDS011;10088;47.946;2.532;2023-04-09T13:09:30;2.67;;;2.23;;
19854;SDS011;10088;47.946;2.532;2023-04-09T13:11:56;5.27;;;2.33;;
19854;SDS011;10088;47.946;2.532;2023-04-09T13:14:21;4.63;;;2.70;;
19854;SDS011;10088;47.946;2.532;2023-04-09T13:16:46;4.17;;;2.70;;
19854;SDS011;10088;47.946;2.532;2023-04-09T13:19:12;2.70;;;2.50;;
19854;SDS011;10088;47.946;2.532;2023-04-09T13:21:37;2.30;;;2.10;;
19854;SDS011;10088;47.946;2.532;2023-04-09T13:24:02;2.57;;;2.00;;
19854;SDS011;10088;47.946;2.532;2023-04-09T13:26:28;4.37;;;1.67;;
19854;SDS011;10088;47.946;2.532;2023-04-09T13:28:54;2.13;;;1.93;;
19854;SDS011;10088;47.946;2.532;2023-04-09T13:31:19;2.53;;;1.70;;
19854;SDS011;10088;47.946;2.532;2023-04-09T13:33:44;2.70;;;1.80;;
19854;SDS011;10088;47.946;2.532;2023-04-09T13:36:09;2.03;;;1.83;;
19854;SDS011;10088;47.946;2.532;2023-04-09T13:38:36;3.07;;;2.07;;
19854;SDS011;10088;47.946;2.532;2023-04-09T13:41:01;3.90;;;2.00;;
19854;SDS011;10088;47.946;2.532;2023-04-09T13:43:26;3.10;;;1.70;;
19854;SDS011;10088;47.946;2.532;2023-04-09T13:45:53;2.50;;;1.70;;
19854;SDS011;10088;47.946;2.532;2023-04-09T13:48:19;1.67;;;1.57;;
19854;SDS011;10088;47.946;2.532;2023-04-09T13:50:44;2.67;;;2.40;;
19854;SDS011;10088;47.946;2.532;2023-04-09T13:53:10;2.60;;;2.40;;
19854;SDS011;10088;47.946;2.532;2023-04-09T13:55:35;2.10;;;1.90;;
19854;SDS011;10088;47.946;2.532;2023-04-09T13:58:00;4.03;;;1.90;;
19854;SDS011;10088;47.946;2.532;2023-04-09T14:00:25;2.50;;;2.30;;
19854;SDS011;10088;47.946;2.532;2023-04-09T14:02:51;2.07;;;1.87;;
19854;SDS011;10088;47.946;2.532;2023-04-09T14:05:16;3.37;;;1.77;;
19854;SDS011;10088;47.946;2.532;2023-04-09T14:07:41;4.03;;;2.30;;
19854;SDS011;10088;47.946;2.532;2023-04-09T14:10:07;1.83;;;1.73;;
19854;SDS011;10088;47.946;2.532;2023-04-09T14:12:32;3.03;;;2.10;;
19854;SDS011;10088;47.946;2.532;2023-04-09T14:14:57;2.03;;;1.83;;
19854;SDS011;10088;47.946;2.532;2023-04-09T14:17:23;4.20;;;2.30;;
19854;SDS011;10088;47.946;2.532;2023-04-09T14:19:48;3.37;;;2.50;;
19854;SDS011;10088;47.946;2.532;2023-04-09T14:22:13;2.40;;;1.90;;
19854;SDS011;10088;47.946;2.532;2023-04-09T14:24:38;2.50;;;2.03;;
19854;SDS011;10088;47.946;2.532;2023-04-09T14:27:04;2.47;;;1.70;;
19854;SDS011;10088;47.946;2.532;2023-04-09T14:29:30;2.10;;;1.90;;
19854;SDS011;10088;47.946;2.532;2023-04-09T14:31:55;2.10;;;1.90;;
19854;SDS011;10088;47.946;2.532;2023-04-09T14:34:21;2.87;;;2.20;;
19854;SDS011;10088;47.946;2.532;2023-04-09T14:36:46;1.77;;;1.57;;
19854;SDS011;10088;47.946;2.532;2023-04-09T14:39:11;1.93;;;1.50;;
19854;SDS011;10088;47.946;2.532;2023-04-09T14:41:36;4.00;;;2.30;;
19854;SDS011;10088;47.946;2.532;2023-04-09T14:44:02;1.83;;;1.73;;